createdAt,value
2022-10-02T00:02:19.424Z,11.80
2022-10-02T00:05:21.233Z,11.90
2022-10-02T00:07:55.948Z,11.90
2022-10-02T00:10:22.881Z,11.80
2022-10-02T00:12:55.084Z,11.90
2022-10-02T00:15:28.831Z,11.90
2022-10-02T00:18:01.693Z,11.90
2022-10-02T00:20:39.172Z,12.00
2022-10-02T00:23:33.255Z,11.90
2022-10-02T00:26:21.210Z,11.80
2022-10-02T00:29:02.683Z,11.80
2022-10-02T00:31:32.693Z,11.60
2022-10-02T00:34:33.148Z,11.60
2022-10-02T00:36:59.978Z,11.60
2022-10-02T00:39:52.215Z,11.60
2022-10-02T00:42:56.544Z,11.60
2022-10-02T00:45:46.717Z,11.50
2022-10-02T00:48:42.601Z,11.50
2022-10-02T00:51:24.359Z,11.50
2022-10-02T00:54:09.123Z,11.50
2022-10-02T00:57:13.417Z,11.50
2022-10-02T01:02:28.794Z,11.60
2022-10-02T01:04:56.169Z,11.60
2022-10-02T01:12:17.653Z,11.80
2022-10-02T01:17:26.626Z,11.90
2022-10-02T01:19:54.520Z,11.90
2022-10-02T01:22:36.013Z,11.90
2022-10-02T01:25:05.499Z,11.90
2022-10-02T01:27:38.805Z,12.00
2022-10-02T01:30:08.806Z,12.10
2022-10-02T01:32:42.660Z,12.10
2022-10-02T01:35:10.142Z,12.10
2022-10-02T01:37:40.989Z,12.10
2022-10-02T01:40:10.752Z,12.10
2022-10-02T01:42:39.131Z,12.10
2022-10-02T01:45:08.837Z,12.10
2022-10-02T01:48:00.981Z,12.10
2022-10-02T01:53:01.028Z,12.10
2022-10-02T01:55:41.078Z,12.10
2022-10-02T01:58:43.266Z,12.20
2022-10-02T02:03:55.499Z,12.30
2022-10-02T02:06:33.968Z,12.40
2022-10-02T02:09:15.211Z,15.20
2022-10-02T02:11:49.291Z,12.40
2022-10-02T02:14:32.354Z,12.40
2022-10-02T02:17:33.762Z,12.40
2022-10-02T02:20:05.967Z,12.50
2022-10-02T02:22:47.557Z,12.50
2022-10-02T02:25:18.675Z,12.50
2022-10-02T02:27:53.082Z,12.60
2022-10-02T02:30:21.769Z,12.60
2022-10-02T02:32:55.814Z,12.60
2022-10-02T02:35:29.916Z,12.60
2022-10-02T02:38:04.320Z,12.60
2022-10-02T02:40:36.517Z,12.60
2022-10-02T02:43:10.669Z,12.60
2022-10-02T02:46:13.339Z,12.60
2022-10-02T02:48:45.242Z,12.60
2022-10-02T02:51:23.511Z,12.60
2022-10-02T02:54:06.316Z,12.60
2022-10-02T02:56:33.702Z,12.60
2022-10-02T02:59:10.822Z,12.70
2022-10-02T03:01:37.563Z,12.80
2022-10-02T03:06:37.144Z,12.80
2022-10-02T03:09:12.943Z,12.90
2022-10-02T03:12:04.312Z,12.90
2022-10-02T03:17:22.674Z,13.00
2022-10-02T03:20:21.655Z,13.10
2022-10-02T03:23:06.475Z,13.10
2022-10-02T03:25:52.916Z,13.20
2022-10-02T03:31:08.626Z,13.20
2022-10-02T03:33:38.077Z,13.20
2022-10-02T03:36:05.362Z,13.30
2022-10-02T03:38:33.770Z,13.40
2022-10-02T03:43:30.545Z,13.40
2022-10-02T03:50:51.421Z,13.60
2022-10-02T03:53:20.725Z,13.70
2022-10-02T03:56:24.430Z,13.70
2022-10-02T03:58:54.954Z,13.80
2022-10-02T04:01:33.447Z,13.80
2022-10-02T04:04:17.626Z,13.80
2022-10-02T04:07:06.122Z,13.80
2022-10-02T04:09:35.480Z,13.90
2022-10-02T04:12:10.192Z,13.90
2022-10-02T04:15:00.347Z,13.80
2022-10-02T04:17:53.796Z,13.90
2022-10-02T04:20:28.773Z,13.80
2022-10-02T04:22:55.856Z,13.80
2022-10-02T04:25:29.919Z,13.80
2022-10-02T04:27:59.070Z,13.80
2022-10-02T04:30:26.075Z,13.80
2022-10-02T04:32:53.928Z,13.80
2022-10-02T04:35:33.578Z,13.80
2022-10-02T04:38:28.141Z,13.80
2022-10-02T04:41:22.450Z,13.80
2022-10-02T04:44:19.547Z,13.80
2022-10-02T04:46:46.136Z,13.90
2022-10-02T04:49:34.633Z,13.90
2022-10-02T04:52:19.652Z,13.90
2022-10-02T04:55:13.233Z,13.90
2022-10-02T04:58:05.172Z,13.80
2022-10-02T05:00:42.625Z,13.80
2022-10-02T05:03:12.100Z,13.80
2022-10-02T05:05:59.739Z,13.70
2022-10-02T05:08:57.171Z,13.80
2022-10-02T05:12:05.041Z,13.80
2022-10-02T05:14:43.288Z,13.70
2022-10-02T05:17:24.951Z,13.70
2022-10-02T05:20:10.861Z,13.70
2022-10-02T05:22:58.125Z,13.70
2022-10-02T05:25:44.751Z,13.70
2022-10-02T05:28:20.156Z,13.80
2022-10-02T05:30:50.937Z,13.80
2022-10-02T05:33:23.189Z,13.80
2022-10-02T05:36:13.041Z,13.80
2022-10-02T05:39:07.212Z,13.80
2022-10-02T05:42:00.317Z,13.80
2022-10-02T05:44:44.534Z,13.90
2022-10-02T05:49:43.283Z,13.90
2022-10-02T05:52:18.506Z,13.90
2022-10-02T05:57:28.026Z,13.90
2022-10-02T06:00:16.859Z,13.90
2022-10-02T06:02:49.290Z,14.00
2022-10-02T06:07:47.210Z,14.10
2022-10-02T06:10:26.352Z,14.10
2022-10-02T06:13:02.233Z,14.20
2022-10-02T06:15:58.383Z,14.20
2022-10-02T06:18:29.820Z,14.30
2022-10-02T06:21:05.305Z,14.30
2022-10-02T06:23:43.527Z,14.30
2022-10-02T06:26:22.295Z,14.40
2022-10-02T06:29:05.201Z,14.30
2022-10-02T06:31:41.796Z,14.30
2022-10-02T06:34:13.090Z,14.30
2022-10-02T06:37:00.814Z,14.40
2022-10-02T06:39:59.584Z,14.50
2022-10-02T06:42:35.374Z,14.50
2022-10-02T06:45:23.908Z,14.50
2022-10-02T06:48:09.626Z,14.60
2022-10-02T06:51:03.651Z,14.60
2022-10-02T06:53:57.675Z,14.70
2022-10-02T06:56:36.262Z,14.70
2022-10-02T06:59:14.931Z,14.70
2022-10-02T07:02:04.011Z,14.80
2022-10-02T07:04:51.406Z,14.90
2022-10-02T07:07:40.883Z,15.00
2022-10-02T07:10:26.466Z,15.10
2022-10-02T07:13:05.432Z,15.10
2022-10-02T07:15:56.715Z,15.30
2022-10-02T07:18:42.656Z,15.30
2022-10-02T07:21:27.219Z,15.20
2022-10-02T07:24:05.499Z,15.20
2022-10-02T07:26:37.871Z,15.20
2022-10-02T07:29:26.075Z,15.20
2022-10-02T07:32:01.889Z,15.40
2022-10-02T07:34:46.358Z,15.40
2022-10-02T07:39:53.775Z,15.70
2022-10-02T07:43:07.022Z,15.60
2022-10-02T07:45:44.206Z,15.60
2022-10-02T07:48:40.446Z,15.40
2022-10-02T07:51:49.738Z,15.40
2022-10-02T07:54:54.727Z,15.40
2022-10-02T07:59:51.550Z,15.30
2022-10-02T08:02:42.661Z,15.30
2022-10-02T08:05:36.598Z,15.20
2022-10-02T08:08:47.746Z,15.20
2022-10-02T08:11:25.354Z,15.20
2022-10-02T08:13:59.367Z,15.20
2022-10-02T08:16:36.753Z,15.30
2022-10-02T08:19:08.700Z,15.20
2022-10-02T08:21:41.828Z,15.30
2022-10-02T08:24:16.056Z,15.30
2022-10-02T08:26:57.753Z,15.40
2022-10-02T08:29:46.618Z,15.50
2022-10-02T08:32:14.392Z,15.60
2022-10-02T08:34:41.963Z,15.60
2022-10-02T08:42:17.671Z,15.90
2022-10-02T08:45:05.299Z,16.10
2022-10-02T08:50:31.483Z,16.40
2022-10-02T08:53:12.874Z,16.50
2022-10-02T08:58:28.016Z,17.00
2022-10-02T09:01:35.054Z,16.90
2022-10-02T09:04:34.242Z,17.10
2022-10-02T09:07:50.159Z,17.10
2022-10-02T09:10:51.756Z,17.30
2022-10-02T09:13:33.235Z,17.40
2022-10-02T09:16:09.131Z,17.50
2022-10-02T09:19:03.414Z,17.30
2022-10-02T09:21:50.922Z,17.40
2022-10-02T09:24:35.344Z,17.10
2022-10-02T09:27:23.567Z,17.10
2022-10-02T09:30:02.341Z,16.90
2022-10-02T09:33:00.096Z,16.70
2022-10-02T09:35:51.132Z,16.80
2022-10-02T09:38:53.360Z,16.70
2022-10-02T09:41:43.031Z,16.80
2022-10-02T09:44:40.098Z,16.90
2022-10-02T09:47:25.179Z,16.80
2022-10-02T09:50:29.211Z,16.80
2022-10-02T09:53:01.770Z,16.80
2022-10-02T09:55:36.691Z,16.70
2022-10-02T09:58:31.240Z,16.50
2022-10-02T10:01:35.697Z,16.40
2022-10-02T10:04:21.251Z,16.40
2022-10-02T10:07:22.351Z,16.50
2022-10-02T10:10:07.096Z,16.90
2022-10-02T10:13:12.303Z,17.00
2022-10-02T10:16:04.038Z,17.20
2022-10-02T10:18:48.701Z,17.50
2022-10-02T10:21:52.753Z,17.40
2022-10-02T10:24:37.630Z,17.30
2022-10-02T10:27:30.211Z,17.40
2022-10-02T10:30:15.870Z,17.50
2022-10-02T10:33:08.182Z,17.70
2022-10-02T10:35:58.886Z,17.70
2022-10-02T10:38:59.177Z,17.60
2022-10-02T10:42:14.548Z,17.60
2022-10-02T10:45:03.901Z,17.80
2022-10-02T10:47:30.614Z,17.80
2022-10-02T10:50:15.393Z,18.00
2022-10-02T10:52:58.097Z,18.20
2022-10-02T10:55:45.243Z,18.50
2022-10-02T10:58:21.316Z,18.40
2022-10-02T11:01:13.071Z,18.70
2022-10-02T11:04:26.702Z,18.90
2022-10-02T11:07:02.020Z,18.70
2022-10-02T11:09:34.812Z,18.40
2022-10-02T11:12:24.715Z,18.20
2022-10-02T11:15:14.577Z,18.30
2022-10-02T11:17:56.416Z,18.40
2022-10-02T11:20:47.695Z,18.30
2022-10-02T11:23:25.966Z,18.30
2022-10-02T11:26:11.339Z,18.20
2022-10-02T11:28:47.348Z,18.00
2022-10-02T11:31:37.564Z,17.90
2022-10-02T11:34:08.046Z,17.70
2022-10-02T11:37:05.780Z,17.60
2022-10-02T11:39:57.163Z,17.50
2022-10-02T11:42:23.767Z,17.50
2022-10-02T11:45:04.654Z,17.70
2022-10-02T11:47:55.057Z,17.90
2022-10-02T11:50:40.779Z,18.30
2022-10-02T11:53:29.297Z,18.60
2022-10-02T11:56:36.147Z,18.60
2022-10-02T11:59:18.310Z,18.70
2022-10-02T12:01:52.288Z,18.70
2022-10-02T12:04:26.230Z,18.60
2022-10-02T12:07:07.884Z,18.40
2022-10-02T12:10:12.100Z,18.60
2022-10-02T12:12:51.521Z,18.60
2022-10-02T12:15:34.195Z,18.60
2022-10-02T12:18:26.887Z,18.40
2022-10-02T12:21:39.676Z,18.40
2022-10-02T12:25:07.375Z,18.80
2022-10-02T12:27:48.789Z,18.90
2022-10-02T12:30:20.296Z,19.00
2022-10-02T12:33:03.130Z,19.00
2022-10-02T12:35:48.525Z,19.10
2022-10-02T12:40:57.902Z,18.90
2022-10-02T12:43:45.700Z,18.90
2022-10-02T12:46:23.335Z,19.10
2022-10-02T12:49:04.975Z,19.20
2022-10-02T12:51:59.178Z,19.40
2022-10-02T12:55:11.080Z,19.40
2022-10-02T12:58:03.756Z,19.50
2022-10-02T13:01:11.092Z,19.30
2022-10-02T13:04:16.332Z,19.30
2022-10-02T13:07:01.515Z,19.80
2022-10-02T13:10:01.703Z,20.00
2022-10-02T13:12:41.285Z,19.90
2022-10-02T13:15:17.232Z,19.90
2022-10-02T13:17:46.876Z,19.80
2022-10-02T13:20:16.389Z,19.90
2022-10-02T13:22:49.106Z,19.90
2022-10-02T13:25:34.344Z,19.70
2022-10-02T13:28:22.824Z,19.70
2022-10-02T13:31:10.826Z,19.50
2022-10-02T13:33:58.272Z,19.30
2022-10-02T13:37:00.289Z,19.20
2022-10-02T13:40:02.655Z,19.20
2022-10-02T13:42:41.045Z,19.10
2022-10-02T13:45:24.572Z,19.10
2022-10-02T13:47:56.687Z,19.10
2022-10-02T13:50:55.144Z,19.00
2022-10-02T13:53:48.200Z,19.00
2022-10-02T13:56:50.217Z,19.10
2022-10-02T13:59:22.626Z,18.90
2022-10-02T14:02:04.333Z,18.60
2022-10-02T14:04:39.797Z,18.60
2022-10-02T14:07:25.016Z,18.60
2022-10-02T14:09:57.705Z,18.50
2022-10-02T14:12:30.426Z,18.40
2022-10-02T14:15:26.345Z,18.40
2022-10-02T14:18:26.429Z,18.40
2022-10-02T14:21:09.292Z,18.40
2022-10-02T14:23:57.422Z,18.40
2022-10-02T14:26:32.883Z,18.30
2022-10-02T14:29:08.690Z,18.10
2022-10-02T14:32:02.754Z,18.00
2022-10-02T14:34:53.060Z,18.00
2022-10-02T14:38:05.252Z,17.90
2022-10-02T14:40:49.961Z,17.90
2022-10-02T14:43:31.050Z,17.80
2022-10-02T14:46:19.590Z,17.70
2022-10-02T14:48:55.466Z,17.60
2022-10-02T14:51:59.379Z,17.50
2022-10-02T14:54:51.214Z,17.40
2022-10-02T14:57:55.604Z,17.50
2022-10-02T15:00:24.739Z,17.40
2022-10-02T15:02:57.190Z,17.40
2022-10-02T15:05:39.043Z,17.40
2022-10-02T15:08:14.818Z,17.40
2022-10-02T15:10:42.516Z,17.30
2022-10-02T15:13:43.794Z,17.20
2022-10-02T15:16:44.399Z,17.20
2022-10-02T15:19:24.404Z,17.20
2022-10-02T15:22:01.990Z,17.20
2022-10-02T15:24:44.407Z,17.10
2022-10-02T15:27:37.493Z,16.90
2022-10-02T15:32:59.107Z,16.70
2022-10-02T15:35:47.215Z,16.60
2022-10-02T15:38:44.820Z,16.40
2022-10-02T15:41:42.099Z,16.20
2022-10-02T15:44:16.364Z,16.10
2022-10-02T15:47:07.311Z,15.90
2022-10-02T15:50:07.273Z,15.90
2022-10-02T15:52:42.683Z,15.80
2022-10-02T15:55:40.431Z,15.80
2022-10-02T15:58:39.823Z,15.70
2022-10-02T16:01:21.853Z,15.70
2022-10-02T16:04:08.859Z,15.70
2022-10-02T16:07:13.993Z,15.70
2022-10-02T16:12:29.681Z,15.80
2022-10-02T16:15:04.038Z,15.90
2022-10-02T16:17:48.422Z,15.90
2022-10-02T16:20:22.004Z,15.90
2022-10-02T16:22:48.643Z,15.80
2022-10-02T16:25:43.605Z,15.80
2022-10-02T16:28:29.075Z,15.70
2022-10-02T16:31:20.977Z,15.60
2022-10-02T16:34:15.094Z,15.50
2022-10-02T16:36:53.691Z,15.50
2022-10-02T16:39:35.353Z,15.50
2022-10-02T16:42:21.214Z,15.40
2022-10-02T16:45:02.733Z,15.30
2022-10-02T16:47:50.384Z,15.30
2022-10-02T16:50:19.833Z,15.20
2022-10-02T16:52:55.886Z,15.20
2022-10-02T16:55:45.205Z,15.10
2022-10-02T16:58:29.780Z,15.10
2022-10-02T17:01:03.271Z,15.10
2022-10-02T17:03:44.766Z,15.00
2022-10-02T17:06:29.408Z,15.00
2022-10-02T17:09:17.168Z,14.90
2022-10-02T17:12:21.049Z,15.00
2022-10-02T17:14:48.763Z,15.00
2022-10-02T17:17:24.607Z,15.10
2022-10-02T17:20:17.728Z,15.00
2022-10-02T17:22:57.127Z,15.00
2022-10-02T17:25:48.531Z,14.90
2022-10-02T17:28:26.222Z,14.80
2022-10-02T17:33:21.680Z,14.60
2022-10-02T17:35:48.300Z,14.70
2022-10-02T17:38:33.810Z,14.80
2022-10-02T17:41:06.640Z,14.80
2022-10-02T17:43:50.966Z,14.90
2022-10-02T17:46:34.957Z,14.90
2022-10-02T17:49:23.923Z,14.80
2022-10-02T17:52:33.913Z,14.90
2022-10-02T17:55:22.266Z,14.90
2022-10-02T17:57:59.903Z,14.90
2022-10-02T18:00:27.638Z,14.80
2022-10-02T18:03:43.749Z,14.70
2022-10-02T18:06:21.025Z,14.60
2022-10-02T18:09:25.795Z,14.40
2022-10-02T18:12:33.797Z,14.30
2022-10-02T18:18:13.958Z,14.10
2022-10-02T18:20:50.123Z,14.10
2022-10-02T18:23:45.779Z,14.10
2022-10-02T18:26:33.751Z,14.00
2022-10-02T18:29:21.445Z,14.00
2022-10-02T18:32:21.808Z,13.90
2022-10-02T18:35:14.179Z,13.80
2022-10-02T18:37:54.535Z,13.70
2022-10-02T18:40:27.015Z,13.80
2022-10-02T18:45:45.144Z,13.70
2022-10-02T18:48:29.910Z,13.70
2022-10-02T18:51:31.825Z,13.70
2022-10-02T18:54:01.535Z,13.60
2022-10-02T18:56:59.628Z,13.60
2022-10-02T19:00:00.937Z,13.50
2022-10-02T19:02:40.769Z,13.50
2022-10-02T19:05:35.389Z,13.40
2022-10-02T19:08:04.867Z,13.40
2022-10-02T19:10:31.481Z,13.40
2022-10-02T19:13:01.263Z,13.40
2022-10-02T19:15:32.394Z,13.30
2022-10-02T19:18:04.817Z,13.40
2022-10-02T19:20:42.033Z,13.30
2022-10-02T19:23:17.037Z,13.40
2022-10-02T19:25:46.989Z,13.30
2022-10-02T19:28:20.943Z,13.30
2022-10-02T19:30:55.831Z,13.20
2022-10-02T19:33:32.122Z,13.10
2022-10-02T19:36:04.234Z,13.10
2022-10-02T19:38:33.886Z,13.10
2022-10-02T19:41:08.748Z,13.00
2022-10-02T19:43:43.781Z,13.00
2022-10-02T19:46:11.258Z,13.00
2022-10-02T19:51:14.903Z,12.90
2022-10-02T19:56:24.480Z,12.90
2022-10-02T19:58:58.606Z,12.90
2022-10-02T20:01:35.853Z,12.80
2022-10-02T20:04:05.092Z,12.80
2022-10-02T20:06:37.577Z,12.70
2022-10-02T20:09:31.781Z,12.60
2022-10-02T20:12:04.481Z,12.60
2022-10-02T20:14:47.413Z,12.50
2022-10-02T20:19:52.784Z,12.60
2022-10-02T20:22:25.268Z,12.60
2022-10-02T20:24:54.955Z,12.60
2022-10-02T20:27:34.750Z,12.70
2022-10-02T20:30:11.546Z,12.70
2022-10-02T20:32:46.668Z,12.70
2022-10-02T20:35:20.494Z,12.70
2022-10-02T20:37:51.260Z,12.70
2022-10-02T20:40:21.809Z,12.70
2022-10-02T20:43:00.771Z,12.70
2022-10-02T20:45:46.424Z,12.70
2022-10-02T20:49:07.414Z,12.70
2022-10-02T20:51:53.985Z,12.70
2022-10-02T20:54:38.273Z,12.70
2022-10-02T20:57:33.681Z,12.70
2022-10-02T21:00:24.950Z,12.80
2022-10-02T21:03:25.334Z,12.70
2022-10-02T21:06:10.086Z,12.80
2022-10-02T21:09:04.256Z,12.70
2022-10-02T21:12:08.541Z,12.60
2022-10-02T21:19:57.459Z,12.50
2022-10-02T21:22:36.468Z,12.50
2022-10-02T21:25:36.476Z,12.50
2022-10-02T21:28:14.749Z,12.60
2022-10-02T21:30:56.732Z,12.60
2022-10-02T21:33:32.937Z,12.50
2022-10-02T21:36:15.589Z,12.40
2022-10-02T21:39:08.481Z,12.30
2022-10-02T21:41:56.721Z,12.30
2022-10-02T21:44:26.382Z,12.20
2022-10-02T21:47:14.464Z,12.20
2022-10-02T21:49:56.084Z,12.20
2022-10-02T21:53:09.575Z,12.20
2022-10-02T21:56:00.890Z,12.00
2022-10-02T21:58:49.421Z,12.00
2022-10-02T22:01:51.745Z,12.00
2022-10-02T22:04:46.279Z,12.00
2022-10-02T22:07:23.323Z,11.90
2022-10-02T22:10:02.471Z,11.90
2022-10-02T22:13:02.214Z,11.80
2022-10-02T22:15:39.023Z,11.80
2022-10-02T22:18:32.403Z,11.70
2022-10-02T22:23:46.922Z,11.70
2022-10-02T22:26:22.796Z,11.60
2022-10-02T22:28:55.518Z,11.60
2022-10-02T22:31:41.663Z,11.60
2022-10-02T22:34:22.424Z,11.50
2022-10-02T22:37:01.520Z,11.50
2022-10-02T22:39:33.996Z,11.40
2022-10-02T22:42:23.530Z,11.40
2022-10-02T22:45:11.721Z,11.30
2022-10-02T22:47:52.320Z,11.30
2022-10-02T22:50:32.243Z,11.30
2022-10-02T22:53:20.266Z,11.20
2022-10-02T22:55:57.435Z,11.20
2022-10-02T22:58:44.346Z,11.20
2022-10-02T23:01:13.842Z,11.20
2022-10-02T23:03:56.837Z,11.20
2022-10-02T23:06:43.299Z,11.10
2022-10-02T23:09:18.778Z,11.00
2022-10-02T23:12:05.830Z,11.00
2022-10-02T23:14:42.217Z,11.00
2022-10-02T23:17:37.223Z,11.00
2022-10-02T23:20:14.125Z,10.90
2022-10-02T23:22:49.564Z,10.90
2022-10-02T23:25:16.261Z,10.80
2022-10-02T23:28:18.339Z,10.70
2022-10-02T23:30:56.957Z,10.70
2022-10-02T23:33:38.745Z,10.70
2022-10-02T23:36:15.848Z,10.60
2022-10-02T23:39:12.746Z,10.60
2022-10-02T23:41:47.517Z,10.60
2022-10-02T23:44:32.809Z,10.50
2022-10-02T23:47:02.648Z,10.40
2022-10-02T23:49:39.522Z,10.40
2022-10-02T23:52:24.601Z,10.40
2022-10-02T23:55:14.097Z,10.40
2022-10-02T23:57:52.897Z,10.30
